首页
METAR-TAF:

METAR-TAF

机场 :

帕尔马机场

帕爾馬, 意大利

纬度: 44-49-17N, 经度: 010-17-41E, 海拔: 50米

当前天气观测

该预报发布于1小时和16分钟前的11:50 UTC
风速1节,风向多变
温度 2°C
湿度 100%
气压 1008 hPa
能見度: 0500

METAR: LIMP 031150Z VRB01KT 0500 R20/1300U FG VV/// 02/02 Q1008

时间: 14:06 (13:06 UTC)

预报

该预报发布于2小时和6分钟前的11:00 UTC
预报有效从03日的 12点(UTC)到 04日的 12点(UTC)
风速5节,风向多变
能見度: 0200
多云层高于100英尺
成为
从 03日的 12点(UTC)到 03日的 15点(UTC)
能見度: 3000
散云层高于2000英尺
轻雾
成为
从 03日的 18点(UTC)到 03日的 20点(UTC)
能見度: 0800
多云层高于1000英尺
成为
从 04日的 08点(UTC)到 04日的 10点(UTC)
能見度: 4000
散云层高于2000英尺
轻雾

TAF: LIMP 031100Z 0312/0412 VRB05KT 0200 FG BKN001 BECMG 0312/0315 3000 BR SCT020 BECMG 0318/0320 0800 FG BKN010 BECMG 0408/0410 4000 BR SCT020

超过4000个机场的气象观测和天气预报(METAR&TAF报告)。

可查询的气象台以黄色和红色小点在地图上表示。

将鼠标移到小点上方,可查看气象台名称。

然后点击查看天气观测和预报。

如需切换地图:点击带黑十字的绿色按钮放大地图;点击带横线的绿色按钮缩小地图;或者点击绿色箭头查看邻近地区的地图。


METAR-TAF: